sensor_id;sensor_type;location;lat;lon;timestamp;P1;durP1;ratioP1;P2;durP2;ratioP2
74679;SDS011;63211;48.548;2.704;2022-10-19T00:00:44;0.82;;;0.50;;
74679;SDS011;63211;48.548;2.704;2022-10-19T00:03:11;1.75;;;0.70;;
74679;SDS011;63211;48.548;2.704;2022-10-19T00:05:38;1.55;;;0.68;;
74679;SDS011;63211;48.548;2.704;2022-10-19T00:08:06;0.93;;;0.60;;
74679;SDS011;63211;48.548;2.704;2022-10-19T00:10:33;1.30;;;0.70;;
74679;SDS011;63211;48.548;2.704;2022-10-19T00:13:00;2.35;;;0.63;;
74679;SDS011;63211;48.548;2.704;2022-10-19T00:15:26;1.63;;;0.68;;
74679;SDS011;63211;48.548;2.704;2022-10-19T00:17:53;1.77;;;0.88;;
74679;SDS011;63211;48.548;2.704;2022-10-19T00:20:21;1.45;;;0.68;;
74679;SDS011;63211;48.548;2.704;2022-10-19T00:22:48;1.75;;;0.65;;
74679;SDS011;63211;48.548;2.704;2022-10-19T00:25:16;1.00;;;0.65;;
74679;SDS011;63211;48.548;2.704;2022-10-19T00:27:43;1.42;;;0.75;;
74679;SDS011;63211;48.548;2.704;2022-10-19T00:30:09;1.88;;;0.50;;
74679;SDS011;63211;48.548;2.704;2022-10-19T00:32:36;0.90;;;0.50;;
74679;SDS011;63211;48.548;2.704;2022-10-19T00:35:03;3.42;;;0.60;;
74679;SDS011;63211;48.548;2.704;2022-10-19T00:37:30;1.00;;;0.60;;
74679;SDS011;63211;48.548;2.704;2022-10-19T00:39:57;1.45;;;0.65;;
74679;SDS011;63211;48.548;2.704;2022-10-19T00:42:25;1.92;;;0.50;;
74679;SDS011;63211;48.548;2.704;2022-10-19T00:44:59;1.67;;;0.70;;
74679;SDS011;63211;48.548;2.704;2022-10-19T00:47:29;0.93;;;0.52;;
74679;SDS011;63211;48.548;2.704;2022-10-19T00:49:57;0.77;;;0.40;;
74679;SDS011;63211;48.548;2.704;2022-10-19T00:52:24;1.05;;;0.77;;
74679;SDS011;63211;48.548;2.704;2022-10-19T00:54:53;0.85;;;0.52;;
74679;SDS011;63211;48.548;2.704;2022-10-19T00:57:23;1.02;;;0.50;;
74679;SDS011;63211;48.548;2.704;2022-10-19T00:59:56;1.00;;;0.50;;
74679;SDS011;63211;48.548;2.704;2022-10-19T01:02:25;1.17;;;0.60;;
74679;SDS011;63211;48.548;2.704;2022-10-19T01:04:51;1.58;;;0.50;;
74679;SDS011;63211;48.548;2.704;2022-10-19T01:07:19;1.05;;;0.60;;
74679;SDS011;63211;48.548;2.704;2022-10-19T01:09:46;1.23;;;0.57;;
74679;SDS011;63211;48.548;2.704;2022-10-19T01:12:19;1.30;;;0.50;;
74679;SDS011;63211;48.548;2.704;2022-10-19T01:14:57;1.67;;;0.70;;
74679;SDS011;63211;48.548;2.704;2022-10-19T01:17:40;0.93;;;0.52;;
74679;SDS011;63211;48.548;2.704;2022-10-19T01:20:28;1.27;;;0.57;;
74679;SDS011;63211;48.548;2.704;2022-10-19T01:23:25;0.75;;;0.35;;
74679;SDS011;63211;48.548;2.704;2022-10-19T01:26:02;1.00;;;0.40;;
74679;SDS011;63211;48.548;2.704;2022-10-19T01:28:45;2.00;;;0.47;;
74679;SDS011;63211;48.548;2.704;2022-10-19T01:34:00;1.02;;;0.50;;
74679;SDS011;63211;48.548;2.704;2022-10-19T01:36:36;1.30;;;0.43;;
74679;SDS011;63211;48.548;2.704;2022-10-19T01:39:07;1.15;;;0.52;;
74679;SDS011;63211;48.548;2.704;2022-10-19T01:44:10;1.27;;;0.45;;
74679;SDS011;63211;48.548;2.704;2022-10-19T01:46:43;1.35;;;0.50;;
74679;SDS011;63211;48.548;2.704;2022-10-19T01:49:16;1.30;;;0.52;;
74679;SDS011;63211;48.548;2.704;2022-10-19T01:51:48;1.35;;;0.60;;
74679;SDS011;63211;48.548;2.704;2022-10-19T01:54:19;1.13;;;0.60;;
74679;SDS011;63211;48.548;2.704;2022-10-19T01:56:47;1.30;;;0.75;;
74679;SDS011;63211;48.548;2.704;2022-10-19T01:59:17;0.88;;;0.45;;
74679;SDS011;63211;48.548;2.704;2022-10-19T02:01:47;1.40;;;0.45;;
74679;SDS011;63211;48.548;2.704;2022-10-19T02:04:18;1.08;;;0.50;;
74679;SDS011;63211;48.548;2.704;2022-10-19T02:06:46;2.00;;;0.77;;
74679;SDS011;63211;48.548;2.704;2022-10-19T02:09:14;0.60;;;0.32;;
74679;SDS011;63211;48.548;2.704;2022-10-19T02:11:44;0.50;;;0.40;;
74679;SDS011;63211;48.548;2.704;2022-10-19T02:14:13;0.45;;;0.22;;
74679;SDS011;63211;48.548;2.704;2022-10-19T02:16:43;0.30;;;0.20;;
74679;SDS011;63211;48.548;2.704;2022-10-19T02:19:16;1.13;;;0.47;;
74679;SDS011;63211;48.548;2.704;2022-10-19T02:21:44;0.60;;;0.30;;
74679;SDS011;63211;48.548;2.704;2022-10-19T02:24:11;0.80;;;0.40;;
74679;SDS011;63211;48.548;2.704;2022-10-19T02:26:38;0.70;;;0.40;;
74679;SDS011;63211;48.548;2.704;2022-10-19T02:29:05;0.68;;;0.35;;
74679;SDS011;63211;48.548;2.704;2022-10-19T02:31:33;0.40;;;0.30;;
74679;SDS011;63211;48.548;2.704;2022-10-19T02:33:59;0.95;;;0.50;;
74679;SDS011;63211;48.548;2.704;2022-10-19T02:36:28;1.98;;;0.40;;
74679;SDS011;63211;48.548;2.704;2022-10-19T02:38:54;1.63;;;0.52;;
74679;SDS011;63211;48.548;2.704;2022-10-19T02:41:22;0.40;;;0.30;;
74679;SDS011;63211;48.548;2.704;2022-10-19T02:43:53;2.13;;;0.43;;
74679;SDS011;63211;48.548;2.704;2022-10-19T02:46:25;1.40;;;0.45;;
74679;SDS011;63211;48.548;2.704;2022-10-19T02:48:57;0.88;;;0.40;;
74679;SDS011;63211;48.548;2.704;2022-10-19T02:51:29;1.23;;;0.43;;
74679;SDS011;63211;48.548;2.704;2022-10-19T02:53:58;0.80;;;0.50;;
74679;SDS011;63211;48.548;2.704;2022-10-19T02:56:25;1.20;;;0.50;;
74679;SDS011;63211;48.548;2.704;2022-10-19T02:58:52;0.57;;;0.30;;
74679;SDS011;63211;48.548;2.704;2022-10-19T03:01:18;1.17;;;0.60;;
74679;SDS011;63211;48.548;2.704;2022-10-19T03:03:45;0.93;;;0.52;;
74679;SDS011;63211;48.548;2.704;2022-10-19T03:06:12;1.55;;;0.40;;
74679;SDS011;63211;48.548;2.704;2022-10-19T03:08:40;0.65;;;0.32;;
74679;SDS011;63211;48.548;2.704;2022-10-19T03:11:06;0.40;;;0.30;;
74679;SDS011;63211;48.548;2.704;2022-10-19T03:13:33;0.85;;;0.30;;
74679;SDS011;63211;48.548;2.704;2022-10-19T03:16:04;1.15;;;0.50;;
74679;SDS011;63211;48.548;2.704;2022-10-19T03:18:32;0.80;;;0.40;;
74679;SDS011;63211;48.548;2.704;2022-10-19T03:21:02;0.70;;;0.40;;
74679;SDS011;63211;48.548;2.704;2022-10-19T03:23:30;0.95;;;0.30;;
74679;SDS011;63211;48.548;2.704;2022-10-19T03:25:58;0.60;;;0.47;;
74679;SDS011;63211;48.548;2.704;2022-10-19T03:28:24;0.70;;;0.30;;
74679;SDS011;63211;48.548;2.704;2022-10-19T03:30:51;0.55;;;0.38;;
74679;SDS011;63211;48.548;2.704;2022-10-19T03:33:17;0.60;;;0.30;;
74679;SDS011;63211;48.548;2.704;2022-10-19T03:35:44;0.65;;;0.40;;
74679;SDS011;63211;48.548;2.704;2022-10-19T03:38:11;1.13;;;0.57;;
74679;SDS011;63211;48.548;2.704;2022-10-19T03:40:37;1.05;;;0.60;;
74679;SDS011;63211;48.548;2.704;2022-10-19T03:43:05;1.00;;;0.47;;
74679;SDS011;63211;48.548;2.704;2022-10-19T03:45:32;1.00;;;0.50;;
74679;SDS011;63211;48.548;2.704;2022-10-19T03:47:59;1.13;;;0.40;;
74679;SDS011;63211;48.548;2.704;2022-10-19T03:50:25;1.15;;;0.47;;
74679;SDS011;63211;48.548;2.704;2022-10-19T03:52:53;1.02;;;0.50;;
74679;SDS011;63211;48.548;2.704;2022-10-19T03:55:20;1.05;;;0.40;;
74679;SDS011;63211;48.548;2.704;2022-10-19T03:57:47;0.95;;;0.60;;
74679;SDS011;63211;48.548;2.704;2022-10-19T04:00:15;1.60;;;0.50;;
74679;SDS011;63211;48.548;2.704;2022-10-19T04:02:42;1.10;;;0.60;;
74679;SDS011;63211;48.548;2.704;2022-10-19T04:05:08;0.85;;;0.60;;
74679;SDS011;63211;48.548;2.704;2022-10-19T04:07:35;1.17;;;0.60;;
74679;SDS011;63211;48.548;2.704;2022-10-19T04:10:01;3.15;;;0.63;;
74679;SDS011;63211;48.548;2.704;2022-10-19T04:12:28;0.77;;;0.40;;
74679;SDS011;63211;48.548;2.704;2022-10-19T04:14:55;1.00;;;0.50;;
74679;SDS011;63211;48.548;2.704;2022-10-19T04:17:23;1.92;;;0.52;;
74679;SDS011;63211;48.548;2.704;2022-10-19T04:19:50;0.68;;;0.40;;
74679;SDS011;63211;48.548;2.704;2022-10-19T04:22:17;0.98;;;0.50;;
74679;SDS011;63211;48.548;2.704;2022-10-19T04:24:43;0.90;;;0.60;;
74679;SDS011;63211;48.548;2.704;2022-10-19T04:27:10;0.80;;;0.40;;
74679;SDS011;63211;48.548;2.704;2022-10-19T04:29:37;1.60;;;0.68;;
74679;SDS011;63211;48.548;2.704;2022-10-19T04:32:03;1.38;;;0.77;;
74679;SDS011;63211;48.548;2.704;2022-10-19T04:34:31;1.35;;;0.43;;
74679;SDS011;63211;48.548;2.704;2022-10-19T04:36:58;1.40;;;0.60;;
74679;SDS011;63211;48.548;2.704;2022-10-19T04:39:25;1.20;;;0.60;;
74679;SDS011;63211;48.548;2.704;2022-10-19T04:41:52;1.05;;;0.63;;
74679;SDS011;63211;48.548;2.704;2022-10-19T04:44:18;1.42;;;0.60;;
74679;SDS011;63211;48.548;2.704;2022-10-19T04:46:45;0.90;;;0.40;;
74679;SDS011;63211;48.548;2.704;2022-10-19T04:49:11;0.90;;;0.60;;
74679;SDS011;63211;48.548;2.704;2022-10-19T04:51:39;1.33;;;0.43;;
74679;SDS011;63211;48.548;2.704;2022-10-19T04:54:06;1.30;;;0.70;;
74679;SDS011;63211;48.548;2.704;2022-10-19T04:56:33;1.00;;;0.63;;
74679;SDS011;63211;48.548;2.704;2022-10-19T04:58:59;1.30;;;0.47;;
74679;SDS011;63211;48.548;2.704;2022-10-19T05:01:27;1.98;;;0.50;;
74679;SDS011;63211;48.548;2.704;2022-10-19T05:03:55;1.05;;;0.70;;
74679;SDS011;63211;48.548;2.704;2022-10-19T05:06:23;0.90;;;0.50;;
74679;SDS011;63211;48.548;2.704;2022-10-19T05:08:51;1.15;;;0.63;;
74679;SDS011;63211;48.548;2.704;2022-10-19T05:11:18;2.95;;;0.80;;
74679;SDS011;63211;48.548;2.704;2022-10-19T05:13:46;1.73;;;0.50;;
74679;SDS011;63211;48.548;2.704;2022-10-19T05:16:14;1.33;;;0.85;;
74679;SDS011;63211;48.548;2.704;2022-10-19T05:18:45;1.77;;;0.70;;
74679;SDS011;63211;48.548;2.704;2022-10-19T05:21:12;1.92;;;0.70;;
74679;SDS011;63211;48.548;2.704;2022-10-19T05:23:40;1.13;;;0.70;;
74679;SDS011;63211;48.548;2.704;2022-10-19T05:26:09;2.85;;;0.60;;
74679;SDS011;63211;48.548;2.704;2022-10-19T05:28:37;1.00;;;0.60;;
74679;SDS011;63211;48.548;2.704;2022-10-19T05:31:05;1.42;;;0.47;;
74679;SDS011;63211;48.548;2.704;2022-10-19T05:33:33;1.33;;;0.40;;
74679;SDS011;63211;48.548;2.704;2022-10-19T05:36:08;1.50;;;0.75;;
74679;SDS011;63211;48.548;2.704;2022-10-19T05:38:38;1.30;;;0.68;;
74679;SDS011;63211;48.548;2.704;2022-10-19T05:41:05;1.00;;;0.63;;
74679;SDS011;63211;48.548;2.704;2022-10-19T05:43:33;1.17;;;0.70;;
74679;SDS011;63211;48.548;2.704;2022-10-19T05:46:01;1.50;;;0.77;;
74679;SDS011;63211;48.548;2.704;2022-10-19T05:48:29;1.42;;;0.70;;
74679;SDS011;63211;48.548;2.704;2022-10-19T05:50:57;1.75;;;0.70;;
74679;SDS011;63211;48.548;2.704;2022-10-19T05:53:24;1.33;;;0.70;;
74679;SDS011;63211;48.548;2.704;2022-10-19T05:55:51;1.10;;;0.60;;
74679;SDS011;63211;48.548;2.704;2022-10-19T05:58:18;2.38;;;1.02;;
74679;SDS011;63211;48.548;2.704;2022-10-19T06:00:50;1.02;;;0.60;;
74679;SDS011;63211;48.548;2.704;2022-10-19T06:03:17;2.10;;;0.70;;
74679;SDS011;63211;48.548;2.704;2022-10-19T06:05:44;1.60;;;0.50;;
74679;SDS011;63211;48.548;2.704;2022-10-19T06:08:11;1.42;;;0.80;;
74679;SDS011;63211;48.548;2.704;2022-10-19T06:10:37;3.28;;;0.70;;
74679;SDS011;63211;48.548;2.704;2022-10-19T06:13:04;1.40;;;0.47;;
74679;SDS011;63211;48.548;2.704;2022-10-19T06:15:31;1.33;;;1.00;;
74679;SDS011;63211;48.548;2.704;2022-10-19T06:17:59;2.00;;;0.63;;
74679;SDS011;63211;48.548;2.704;2022-10-19T06:20:26;2.97;;;0.88;;
74679;SDS011;63211;48.548;2.704;2022-10-19T06:22:53;1.48;;;0.75;;
74679;SDS011;63211;48.548;2.704;2022-10-19T06:25:20;1.83;;;0.82;;
74679;SDS011;63211;48.548;2.704;2022-10-19T06:27:47;1.88;;;0.77;;
74679;SDS011;63211;48.548;2.704;2022-10-19T06:30:13;1.60;;;0.70;;
74679;SDS011;63211;48.548;2.704;2022-10-19T06:32:40;1.23;;;0.60;;
74679;SDS011;63211;48.548;2.704;2022-10-19T06:35:08;1.83;;;0.70;;
74679;SDS011;63211;48.548;2.704;2022-10-19T06:37:35;1.13;;;0.70;;
74679;SDS011;63211;48.548;2.704;2022-10-19T06:40:02;1.90;;;1.00;;
74679;SDS011;63211;48.548;2.704;2022-10-19T06:42:28;1.33;;;0.60;;
74679;SDS011;63211;48.548;2.704;2022-10-19T06:44:55;0.90;;;0.70;;
74679;SDS011;63211;48.548;2.704;2022-10-19T06:47:22;1.20;;;0.65;;
74679;SDS011;63211;48.548;2.704;2022-10-19T06:49:55;1.70;;;0.80;;
74679;SDS011;63211;48.548;2.704;2022-10-19T06:52:22;1.20;;;0.60;;
74679;SDS011;63211;48.548;2.704;2022-10-19T06:54:49;1.80;;;0.60;;
74679;SDS011;63211;48.548;2.704;2022-10-19T06:57:16;0.88;;;0.40;;
74679;SDS011;63211;48.548;2.704;2022-10-19T06:59:42;1.23;;;0.50;;
74679;SDS011;63211;48.548;2.704;2022-10-19T07:02:09;0.85;;;0.50;;
74679;SDS011;63211;48.548;2.704;2022-10-19T07:04:35;0.93;;;0.47;;
74679;SDS011;63211;48.548;2.704;2022-10-19T07:07:02;1.05;;;0.57;;
74679;SDS011;63211;48.548;2.704;2022-10-19T07:09:31;2.22;;;0.63;;
74679;SDS011;63211;48.548;2.704;2022-10-19T07:11:57;1.00;;;0.60;;
74679;SDS011;63211;48.548;2.704;2022-10-19T07:14:24;0.85;;;0.57;;
74679;SDS011;63211;48.548;2.704;2022-10-19T07:16:52;1.65;;;0.77;;
74679;SDS011;63211;48.548;2.704;2022-10-19T07:19:19;1.85;;;0.60;;
74679;SDS011;63211;48.548;2.704;2022-10-19T07:21:49;1.63;;;1.00;;
74679;SDS011;63211;48.548;2.704;2022-10-19T07:24:15;1.60;;;0.70;;
74679;SDS011;63211;48.548;2.704;2022-10-19T07:26:44;1.10;;;0.52;;
74679;SDS011;63211;48.548;2.704;2022-10-19T07:29:10;1.30;;;0.63;;
74679;SDS011;63211;48.548;2.704;2022-10-19T07:31:37;1.38;;;0.63;;
74679;SDS011;63211;48.548;2.704;2022-10-19T07:34:04;1.00;;;0.52;;
74679;SDS011;63211;48.548;2.704;2022-10-19T07:36:31;1.08;;;0.73;;
74679;SDS011;63211;48.548;2.704;2022-10-19T07:38:59;0.90;;;0.52;;
74679;SDS011;63211;48.548;2.704;2022-10-19T07:41:26;0.65;;;0.50;;
74679;SDS011;63211;48.548;2.704;2022-10-19T07:43:54;1.02;;;0.65;;
74679;SDS011;63211;48.548;2.704;2022-10-19T07:46:22;0.65;;;0.50;;
74679;SDS011;63211;48.548;2.704;2022-10-19T07:48:50;1.02;;;0.75;;
74679;SDS011;63211;48.548;2.704;2022-10-19T07:51:17;1.38;;;0.65;;
74679;SDS011;63211;48.548;2.704;2022-10-19T07:53:44;1.35;;;0.60;;
74679;SDS011;63211;48.548;2.704;2022-10-19T07:56:12;1.13;;;0.70;;
74679;SDS011;63211;48.548;2.704;2022-10-19T07:58:40;1.25;;;0.70;;
74679;SDS011;63211;48.548;2.704;2022-10-19T08:01:09;0.75;;;0.50;;
74679;SDS011;63211;48.548;2.704;2022-10-19T08:03:38;6.38;;;0.70;;
74679;SDS011;63211;48.548;2.704;2022-10-19T08:06:06;2.63;;;0.75;;
74679;SDS011;63211;48.548;2.704;2022-10-19T08:08:34;2.42;;;0.60;;
74679;SDS011;63211;48.548;2.704;2022-10-19T08:11:05;1.95;;;0.52;;
74679;SDS011;63211;48.548;2.704;2022-10-19T08:13:32;1.48;;;0.70;;
74679;SDS011;63211;48.548;2.704;2022-10-19T08:15:59;1.20;;;0.50;;
74679;SDS011;63211;48.548;2.704;2022-10-19T08:18:27;1.00;;;0.50;;
74679;SDS011;63211;48.548;2.704;2022-10-19T08:20:53;2.38;;;0.55;;
74679;SDS011;63211;48.548;2.704;2022-10-19T08:23:20;2.05;;;0.60;;
74679;SDS011;63211;48.548;2.704;2022-10-19T08:25:48;1.15;;;0.68;;
74679;SDS011;63211;48.548;2.704;2022-10-19T08:28:14;3.15;;;0.85;;
74679;SDS011;63211;48.548;2.704;2022-10-19T08:30:41;1.50;;;0.68;;
74679;SDS011;63211;48.548;2.704;2022-10-19T08:33:08;0.68;;;0.30;;
74679;SDS011;63211;48.548;2.704;2022-10-19T08:35:38;4.00;;;0.75;;
74679;SDS011;63211;48.548;2.704;2022-10-19T08:38:04;1.85;;;0.50;;
74679;SDS011;63211;48.548;2.704;2022-10-19T08:40:31;0.90;;;0.45;;
74679;SDS011;63211;48.548;2.704;2022-10-19T08:42:59;3.78;;;0.70;;
74679;SDS011;63211;48.548;2.704;2022-10-19T08:45:32;1.42;;;0.70;;
74679;SDS011;63211;48.548;2.704;2022-10-19T08:50:55;1.60;;;0.82;;
74679;SDS011;63211;48.548;2.704;2022-10-19T08:53:26;1.50;;;0.75;;
74679;SDS011;63211;48.548;2.704;2022-10-19T08:56:12;1.27;;;0.75;;
74679;SDS011;63211;48.548;2.704;2022-10-19T08:58:48;1.55;;;0.70;;
74679;SDS011;63211;48.548;2.704;2022-10-19T09:01:27;1.30;;;0.90;;
74679;SDS011;63211;48.548;2.704;2022-10-19T09:04:03;1.15;;;0.57;;
74679;SDS011;63211;48.548;2.704;2022-10-19T09:06:36;1.15;;;0.73;;
74679;SDS011;63211;48.548;2.704;2022-10-19T09:09:12;0.90;;;0.52;;
74679;SDS011;63211;48.548;2.704;2022-10-19T09:11:41;1.52;;;0.70;;
74679;SDS011;63211;48.548;2.704;2022-10-19T09:14:12;1.30;;;0.65;;
74679;SDS011;63211;48.548;2.704;2022-10-19T09:16:43;1.40;;;0.50;;
74679;SDS011;63211;48.548;2.704;2022-10-19T09:19:12;0.95;;;0.57;;
74679;SDS011;63211;48.548;2.704;2022-10-19T09:21:52;1.23;;;0.73;;
74679;SDS011;63211;48.548;2.704;2022-10-19T09:24:29;1.50;;;0.90;;
74679;SDS011;63211;48.548;2.704;2022-10-19T09:27:02;1.20;;;0.63;;
74679;SDS011;63211;48.548;2.704;2022-10-19T09:29:31;1.15;;;0.63;;
74679;SDS011;63211;48.548;2.704;2022-10-19T09:32:03;1.38;;;0.80;;
74679;SDS011;63211;48.548;2.704;2022-10-19T09:34:35;1.48;;;0.80;;
74679;SDS011;63211;48.548;2.704;2022-10-19T09:37:07;1.20;;;0.77;;
74679;SDS011;63211;48.548;2.704;2022-10-19T09:39:33;1.80;;;0.73;;
74679;SDS011;63211;48.548;2.704;2022-10-19T09:42:03;1.08;;;0.73;;
74679;SDS011;63211;48.548;2.704;2022-10-19T09:44:33;1.95;;;0.90;;
74679;SDS011;63211;48.548;2.704;2022-10-19T09:47:01;1.00;;;0.60;;
74679;SDS011;63211;48.548;2.704;2022-10-19T09:49:38;1.02;;;0.60;;
74679;SDS011;63211;48.548;2.704;2022-10-19T09:54:58;1.63;;;0.82;;
74679;SDS011;63211;48.548;2.704;2022-10-19T09:57:27;1.17;;;0.65;;
74679;SDS011;63211;48.548;2.704;2022-10-19T09:59:53;2.35;;;1.10;;
74679;SDS011;63211;48.548;2.704;2022-10-19T10:02:20;2.50;;;0.82;;
74679;SDS011;63211;48.548;2.704;2022-10-19T10:04:54;1.00;;;0.55;;
74679;SDS011;63211;48.548;2.704;2022-10-19T10:07:31;2.10;;;0.90;;
74679;SDS011;63211;48.548;2.704;2022-10-19T10:10:00;3.70;;;1.35;;
74679;SDS011;63211;48.548;2.704;2022-10-19T10:12:27;2.25;;;1.13;;
74679;SDS011;63211;48.548;2.704;2022-10-19T10:14:53;4.65;;;0.95;;
74679;SDS011;63211;48.548;2.704;2022-10-19T10:17:21;1.67;;;0.90;;
74679;SDS011;63211;48.548;2.704;2022-10-19T10:20:01;4.85;;;1.35;;
74679;SDS011;63211;48.548;2.704;2022-10-19T10:22:43;2.60;;;1.00;;
74679;SDS011;63211;48.548;2.704;2022-10-19T10:27:52;2.20;;;1.13;;
74679;SDS011;63211;48.548;2.704;2022-10-19T10:30:21;2.28;;;1.00;;
74679;SDS011;63211;48.548;2.704;2022-10-19T10:32:48;1.67;;;0.80;;
74679;SDS011;63211;48.548;2.704;2022-10-19T10:35:17;1.77;;;1.08;;
74679;SDS011;63211;48.548;2.704;2022-10-19T10:37:48;2.78;;;1.10;;
74679;SDS011;63211;48.548;2.704;2022-10-19T10:40:18;1.23;;;0.77;;
74679;SDS011;63211;48.548;2.704;2022-10-19T10:42:48;3.08;;;0.98;;
74679;SDS011;63211;48.548;2.704;2022-10-19T10:45:17;2.97;;;0.85;;
74679;SDS011;63211;48.548;2.704;2022-10-19T10:47:47;3.50;;;1.13;;
74679;SDS011;63211;48.548;2.704;2022-10-19T10:50:15;2.15;;;1.05;;
74679;SDS011;63211;48.548;2.704;2022-10-19T10:52:58;3.30;;;1.13;;
74679;SDS011;63211;48.548;2.704;2022-10-19T10:55:26;2.85;;;0.82;;
74679;SDS011;63211;48.548;2.704;2022-10-19T10:57:57;3.30;;;1.20;;
74679;SDS011;63211;48.548;2.704;2022-10-19T11:00:35;3.20;;;1.00;;
74679;SDS011;63211;48.548;2.704;2022-10-19T11:03:05;1.83;;;1.13;;
74679;SDS011;63211;48.548;2.704;2022-10-19T11:05:39;3.33;;;1.13;;
74679;SDS011;63211;48.548;2.704;2022-10-19T11:08:14;2.25;;;1.15;;
74679;SDS011;63211;48.548;2.704;2022-10-19T11:10:48;2.17;;;1.05;;
74679;SDS011;63211;48.548;2.704;2022-10-19T11:13:20;2.00;;;1.10;;
74679;SDS011;63211;48.548;2.704;2022-10-19T11:15:53;1.83;;;1.00;;
74679;SDS011;63211;48.548;2.704;2022-10-19T11:18:23;2.90;;;1.00;;
74679;SDS011;63211;48.548;2.704;2022-10-19T11:23:34;3.70;;;1.30;;
74679;SDS011;63211;48.548;2.704;2022-10-19T11:26:14;2.67;;;1.50;;
74679;SDS011;63211;48.548;2.704;2022-10-19T11:28:54;3.72;;;1.42;;
74679;SDS011;63211;48.548;2.704;2022-10-19T11:31:35;2.83;;;1.48;;
74679;SDS011;63211;48.548;2.704;2022-10-19T11:34:14;3.05;;;1.65;;
74679;SDS011;63211;48.548;2.704;2022-10-19T11:36:53;2.25;;;1.30;;
74679;SDS011;63211;48.548;2.704;2022-10-19T11:39:29;2.65;;;1.30;;
74679;SDS011;63211;48.548;2.704;2022-10-19T11:42:07;2.63;;;1.30;;
74679;SDS011;63211;48.548;2.704;2022-10-19T11:44:46;3.78;;;1.40;;
74679;SDS011;63211;48.548;2.704;2022-10-19T11:47:25;4.50;;;1.60;;
74679;SDS011;63211;48.548;2.704;2022-10-19T11:50:08;2.20;;;1.35;;
74679;SDS011;63211;48.548;2.704;2022-10-19T11:52:46;4.78;;;1.60;;
74679;SDS011;63211;48.548;2.704;2022-10-19T11:55:23;1.70;;;1.17;;
74679;SDS011;63211;48.548;2.704;2022-10-19T11:58:02;3.05;;;1.65;;
74679;SDS011;63211;48.548;2.704;2022-10-19T12:00:53;3.83;;;1.70;;
74679;SDS011;63211;48.548;2.704;2022-10-19T12:03:35;2.80;;;1.55;;
74679;SDS011;63211;48.548;2.704;2022-10-19T12:06:18;2.22;;;1.25;;
74679;SDS011;63211;48.548;2.704;2022-10-19T12:08:54;3.53;;;1.52;;
74679;SDS011;63211;48.548;2.704;2022-10-19T12:11:34;3.20;;;1.75;;
74679;SDS011;63211;48.548;2.704;2022-10-19T12:14:11;3.17;;;1.42;;
74679;SDS011;63211;48.548;2.704;2022-10-19T12:16:43;4.70;;;1.40;;
74679;SDS011;63211;48.548;2.704;2022-10-19T12:19:15;3.45;;;1.48;;
74679;SDS011;63211;48.548;2.704;2022-10-19T12:21:45;2.47;;;1.20;;
74679;SDS011;63211;48.548;2.704;2022-10-19T12:24:13;3.97;;;1.83;;
74679;SDS011;63211;48.548;2.704;2022-10-19T12:26:44;2.95;;;1.65;;
74679;SDS011;63211;48.548;2.704;2022-10-19T12:29:13;2.70;;;1.40;;
74679;SDS011;63211;48.548;2.704;2022-10-19T12:31:42;2.00;;;1.40;;
74679;SDS011;63211;48.548;2.704;2022-10-19T12:34:14;2.35;;;1.17;;
74679;SDS011;63211;48.548;2.704;2022-10-19T12:36:53;1.90;;;1.10;;
74679;SDS011;63211;48.548;2.704;2022-10-19T12:39:27;2.35;;;1.27;;
74679;SDS011;63211;48.548;2.704;2022-10-19T12:42:01;3.65;;;1.40;;
74679;SDS011;63211;48.548;2.704;2022-10-19T12:44:41;2.22;;;1.23;;
74679;SDS011;63211;48.548;2.704;2022-10-19T12:47:32;2.63;;;1.35;;
74679;SDS011;63211;48.548;2.704;2022-10-19T12:49:59;2.05;;;0.95;;
74679;SDS011;63211;48.548;2.704;2022-10-19T12:52:36;3.38;;;1.33;;
74679;SDS011;63211;48.548;2.704;2022-10-19T12:55:09;4.00;;;1.35;;
74679;SDS011;63211;48.548;2.704;2022-10-19T12:58:02;3.00;;;1.58;;
74679;SDS011;63211;48.548;2.704;2022-10-19T13:00:31;3.60;;;1.10;;
74679;SDS011;63211;48.548;2.704;2022-10-19T13:03:00;2.90;;;1.23;;
74679;SDS011;63211;48.548;2.704;2022-10-19T13:05:30;2.97;;;1.25;;
74679;SDS011;63211;48.548;2.704;2022-10-19T13:07:59;2.05;;;1.13;;
74679;SDS011;63211;48.548;2.704;2022-10-19T13:10:28;3.13;;;1.00;;
74679;SDS011;63211;48.548;2.704;2022-10-19T13:12:57;3.35;;;1.30;;
74679;SDS011;63211;48.548;2.704;2022-10-19T13:15:49;1.80;;;1.17;;
74679;SDS011;63211;48.548;2.704;2022-10-19T13:21:44;1.88;;;1.20;;
74679;SDS011;63211;48.548;2.704;2022-10-19T13:24:25;2.08;;;1.20;;
74679;SDS011;63211;48.548;2.704;2022-10-19T13:29:59;4.03;;;1.48;;
74679;SDS011;63211;48.548;2.704;2022-10-19T13:32:38;2.88;;;1.00;;
74679;SDS011;63211;48.548;2.704;2022-10-19T13:38:08;2.70;;;1.10;;
74679;SDS011;63211;48.548;2.704;2022-10-19T13:41:03;3.33;;;1.50;;
74679;SDS011;63211;48.548;2.704;2022-10-19T13:43:33;2.42;;;1.05;;
74679;SDS011;63211;48.548;2.704;2022-10-19T13:46:07;3.15;;;1.17;;
74679;SDS011;63211;48.548;2.704;2022-10-19T13:48:52;1.77;;;0.98;;
74679;SDS011;63211;48.548;2.704;2022-10-19T13:51:54;2.38;;;1.15;;
74679;SDS011;63211;48.548;2.704;2022-10-19T13:54:46;3.90;;;1.35;;
74679;SDS011;63211;48.548;2.704;2022-10-19T13:57:29;2.38;;;1.20;;
74679;SDS011;63211;48.548;2.704;2022-10-19T14:00:13;2.70;;;1.02;;
74679;SDS011;63211;48.548;2.704;2022-10-19T14:02:46;2.63;;;1.13;;
74679;SDS011;63211;48.548;2.704;2022-10-19T14:11:30;3.13;;;1.23;;
74679;SDS011;63211;48.548;2.704;2022-10-19T14:14:11;2.72;;;1.10;;
74679;SDS011;63211;48.548;2.704;2022-10-19T14:16:53;1.85;;;1.10;;
74679;SDS011;63211;48.548;2.704;2022-10-19T14:19:23;2.83;;;1.08;;
74679;SDS011;63211;48.548;2.704;2022-10-19T14:21:55;2.25;;;1.13;;
74679;SDS011;63211;48.548;2.704;2022-10-19T14:24:29;2.95;;;1.33;;
74679;SDS011;63211;48.548;2.704;2022-10-19T14:27:00;2.28;;;1.27;;
74679;SDS011;63211;48.548;2.704;2022-10-19T14:29:29;3.70;;;1.30;;
74679;SDS011;63211;48.548;2.704;2022-10-19T14:31:58;1.48;;;1.00;;
74679;SDS011;63211;48.548;2.704;2022-10-19T14:34:25;1.98;;;1.05;;
74679;SDS011;63211;48.548;2.704;2022-10-19T14:36:52;2.83;;;1.17;;
74679;SDS011;63211;48.548;2.704;2022-10-19T14:39:27;1.90;;;1.10;;
74679;SDS011;63211;48.548;2.704;2022-10-19T14:41:57;2.35;;;0.95;;
74679;SDS011;63211;48.548;2.704;2022-10-19T14:44:34;2.28;;;0.95;;
74679;SDS011;63211;48.548;2.704;2022-10-19T14:47:05;1.85;;;1.00;;
74679;SDS011;63211;48.548;2.704;2022-10-19T14:49:42;2.38;;;1.13;;
74679;SDS011;63211;48.548;2.704;2022-10-19T14:52:08;1.55;;;0.95;;
74679;SDS011;63211;48.548;2.704;2022-10-19T14:54:43;1.50;;;0.90;;
74679;SDS011;63211;48.548;2.704;2022-10-19T14:57:14;3.20;;;1.50;;
74679;SDS011;63211;48.548;2.704;2022-10-19T14:59:46;1.85;;;1.08;;
74679;SDS011;63211;48.548;2.704;2022-10-19T15:02:16;2.03;;;1.10;;
74679;SDS011;63211;48.548;2.704;2022-10-19T15:04:46;2.83;;;1.10;;
74679;SDS011;63211;48.548;2.704;2022-10-19T15:07:15;2.13;;;1.20;;
74679;SDS011;63211;48.548;2.704;2022-10-19T15:09:49;2.53;;;1.20;;
74679;SDS011;63211;48.548;2.704;2022-10-19T15:12:21;2.63;;;1.20;;
74679;SDS011;63211;48.548;2.704;2022-10-19T15:14:52;2.72;;;1.30;;
74679;SDS011;63211;48.548;2.704;2022-10-19T15:17:26;2.28;;;1.20;;
74679;SDS011;63211;48.548;2.704;2022-10-19T15:19:55;1.63;;;0.90;;
74679;SDS011;63211;48.548;2.704;2022-10-19T15:22:33;1.80;;;1.13;;
74679;SDS011;63211;48.548;2.704;2022-10-19T15:27:57;1.88;;;1.10;;
74679;SDS011;63211;48.548;2.704;2022-10-19T15:30:44;2.63;;;1.25;;
74679;SDS011;63211;48.548;2.704;2022-10-19T15:33:22;1.65;;;1.02;;
74679;SDS011;63211;48.548;2.704;2022-10-19T15:35:49;2.97;;;1.10;;
74679;SDS011;63211;48.548;2.704;2022-10-19T15:38:16;2.85;;;1.52;;
74679;SDS011;63211;48.548;2.704;2022-10-19T15:40:45;2.83;;;1.23;;
74679;SDS011;63211;48.548;2.704;2022-10-19T15:43:30;2.05;;;1.10;;